sensor_id;sensor_type;location;lat;lon;timestamp;pressure;altitude;pressure_sealevel;temperature;humidity
53011;BME280;42803;55.762;38.084;2023-02-24T00:00:15;99247.31;;;-8.82;79.06
53011;BME280;42803;55.762;38.084;2023-02-24T00:03:01;99238.41;;;-8.91;78.68
53011;BME280;42803;55.762;38.084;2023-02-24T00:05:34;99240.53;;;-9.00;79.11
53011;BME280;42803;55.762;38.084;2023-02-24T00:08:03;99249.50;;;-9.07;79.24
53011;BME280;42803;55.762;38.084;2023-02-24T00:10:32;99245.84;;;-9.15;79.58
53011;BME280;42803;55.762;38.084;2023-02-24T00:13:04;99243.31;;;-9.21;80.08
53011;BME280;42803;55.762;38.084;2023-02-24T00:15:34;99247.91;;;-9.24;80.58
53011;BME280;42803;55.762;38.084;2023-02-24T00:18:05;99245.19;;;-9.25;80.68
53011;BME280;42803;55.762;38.084;2023-02-24T00:20:34;99238.50;;;-9.25;81.04
53011;BME280;42803;55.762;38.084;2023-02-24T00:23:03;99243.13;;;-9.22;81.27
53011;BME280;42803;55.762;38.084;2023-02-24T00:25:32;99235.28;;;-9.18;81.28
53011;BME280;42803;55.762;38.084;2023-02-24T00:28:02;99231.81;;;-9.13;81.66
53011;BME280;42803;55.762;38.084;2023-02-24T00:30:31;99233.88;;;-9.11;81.06
53011;BME280;42803;55.762;38.084;2023-02-24T00:33:00;99221.47;;;-9.03;80.83
53011;BME280;42803;55.762;38.084;2023-02-24T00:35:32;99210.38;;;-8.98;80.65
53011;BME280;42803;55.762;38.084;2023-02-24T00:38:01;99214.50;;;-8.93;80.82
53011;BME280;42803;55.762;38.084;2023-02-24T00:40:31;99213.13;;;-8.91;80.42
53011;BME280;42803;55.762;38.084;2023-02-24T00:43:03;99213.13;;;-8.91;80.19
53011;BME280;42803;55.762;38.084;2023-02-24T00:45:34;99205.06;;;-8.89;80.67
53011;BME280;42803;55.762;38.084;2023-02-24T00:48:05;99203.91;;;-8.85;80.27
53011;BME280;42803;55.762;38.084;2023-02-24T00:50:38;99191.47;;;-8.84;80.39
53011;BME280;42803;55.762;38.084;2023-02-24T00:53:08;99180.44;;;-8.84;79.37
53011;BME280;42803;55.762;38.084;2023-02-24T00:55:37;99185.50;;;-8.84;79.38
53011;BME280;42803;55.762;38.084;2023-02-24T00:58:06;99188.50;;;-8.87;79.03
53011;BME280;42803;55.762;38.084;2023-02-24T01:00:35;99193.34;;;-8.94;79.00
53011;BME280;42803;55.762;38.084;2023-02-24T01:03:05;99187.44;;;-9.05;79.60
53011;BME280;42803;55.762;38.084;2023-02-24T01:05:35;99177.38;;;-9.17;79.65
53011;BME280;42803;55.762;38.084;2023-02-24T01:08:06;99179.47;;;-9.25;79.96
53011;BME280;42803;55.762;38.084;2023-02-24T01:10:35;99181.59;;;-9.34;80.26
53011;BME280;42803;55.762;38.084;2023-02-24T01:13:04;99166.22;;;-9.41;80.66
53011;BME280;42803;55.762;38.084;2023-02-24T01:15:34;99169.66;;;-9.46;80.63
53011;BME280;42803;55.762;38.084;2023-02-24T01:18:03;99164.41;;;-9.53;81.01
53011;BME280;42803;55.762;38.084;2023-02-24T01:20:32;99163.72;;;-9.58;81.16
53011;BME280;42803;55.762;38.084;2023-02-24T01:23:07;99148.59;;;-9.64;81.45
53011;BME280;42803;55.762;38.084;2023-02-24T01:25:36;99146.31;;;-9.68;81.55
53011;BME280;42803;55.762;38.084;2023-02-24T01:28:05;99151.59;;;-9.72;81.74
53011;BME280;42803;55.762;38.084;2023-02-24T01:30:37;99143.81;;;-9.79;81.96
53011;BME280;42803;55.762;38.084;2023-02-24T01:33:07;99148.59;;;-9.81;82.18
53011;BME280;42803;55.762;38.084;2023-02-24T01:35:41;99143.56;;;-9.81;82.23
53011;BME280;42803;55.762;38.084;2023-02-24T01:38:11;99137.16;;;-9.78;82.53
53011;BME280;42803;55.762;38.084;2023-02-24T01:40:40;99133.25;;;-9.76;83.05
53011;BME280;42803;55.762;38.084;2023-02-24T01:43:09;99131.84;;;-9.74;82.67
53011;BME280;42803;55.762;38.084;2023-02-24T01:45:39;99131.41;;;-9.72;82.54
53011;BME280;42803;55.762;38.084;2023-02-24T01:48:09;99127.00;;;-9.73;82.44
53011;BME280;42803;55.762;38.084;2023-02-24T01:50:39;99115.09;;;-9.74;82.39
53011;BME280;42803;55.762;38.084;2023-02-24T01:53:11;99117.63;;;-9.74;82.35
53011;BME280;42803;55.762;38.084;2023-02-24T01:55:42;99103.63;;;-9.72;82.32
53011;BME280;42803;55.762;38.084;2023-02-24T01:58:19;99096.25;;;-9.70;82.27
53011;BME280;42803;55.762;38.084;2023-02-24T02:00:49;99094.44;;;-9.71;81.97
53011;BME280;42803;55.762;38.084;2023-02-24T02:03:26;99095.56;;;-9.69;82.51
53011;BME280;42803;55.762;38.084;2023-02-24T02:06:03;99092.34;;;-9.68;82.22
53011;BME280;42803;55.762;38.084;2023-02-24T02:08:35;99090.75;;;-9.68;82.13
53011;BME280;42803;55.762;38.084;2023-02-24T02:11:09;99080.66;;;-9.68;82.25
53011;BME280;42803;55.762;38.084;2023-02-24T02:13:40;99081.34;;;-9.69;82.20
53011;BME280;42803;55.762;38.084;2023-02-24T02:16:24;99079.97;;;-9.72;81.96
53011;BME280;42803;55.762;38.084;2023-02-24T02:19:11;99077.47;;;-9.78;81.79
53011;BME280;42803;55.762;38.084;2023-02-24T02:22:05;99076.13;;;-9.87;81.63
53011;BME280;42803;55.762;38.084;2023-02-24T02:24:46;99075.22;;;-9.93;81.54
53011;BME280;42803;55.762;38.084;2023-02-24T02:27:45;99077.50;;;-10.00;81.93
53011;BME280;42803;55.762;38.084;2023-02-24T02:30:50;99066.31;;;-10.14;81.71
53011;BME280;42803;55.762;38.084;2023-02-24T02:33:55;99061.97;;;-10.20;81.78
53011;BME280;42803;55.762;38.084;2023-02-24T02:36:36;99055.13;;;-10.27;82.02
53011;BME280;42803;55.762;38.084;2023-02-24T02:39:15;99057.88;;;-10.31;81.87
53011;BME280;42803;55.762;38.084;2023-02-24T02:41:52;99054.22;;;-10.33;82.15
53011;BME280;42803;55.762;38.084;2023-02-24T02:44:30;99050.78;;;-10.39;82.10
53011;BME280;42803;55.762;38.084;2023-02-24T02:47:08;99046.44;;;-10.40;82.51
53011;BME280;42803;55.762;38.084;2023-02-24T02:49:43;99033.59;;;-10.42;82.59
53011;BME280;42803;55.762;38.084;2023-02-24T02:52:16;99022.59;;;-10.42;82.42
53011;BME280;42803;55.762;38.084;2023-02-24T02:54:48;99006.09;;;-10.40;81.78
53011;BME280;42803;55.762;38.084;2023-02-24T02:57:23;99003.31;;;-10.42;81.94
53011;BME280;42803;55.762;38.084;2023-02-24T02:59:56;98993.22;;;-10.42;81.76
53011;BME280;42803;55.762;38.084;2023-02-24T03:02:29;98993.47;;;-10.40;81.97
53011;BME280;42803;55.762;38.084;2023-02-24T03:05:09;98980.16;;;-10.39;81.83
53011;BME280;42803;55.762;38.084;2023-02-24T03:07:41;98975.56;;;-10.36;82.12
53011;BME280;42803;55.762;38.084;2023-02-24T03:10:16;98971.66;;;-10.34;81.91
53011;BME280;42803;55.762;38.084;2023-02-24T03:12:51;98980.16;;;-10.34;81.75
53011;BME280;42803;55.762;38.084;2023-02-24T03:15:25;98976.69;;;-10.34;81.67
53011;BME280;42803;55.762;38.084;2023-02-24T03:17:59;98975.78;;;-10.29;82.24
53011;BME280;42803;55.762;38.084;2023-02-24T03:20:35;98962.47;;;-10.28;81.98
53011;BME280;42803;55.762;38.084;2023-02-24T03:23:10;98965.69;;;-10.29;81.64
53011;BME280;42803;55.762;38.084;2023-02-24T03:25:51;98949.41;;;-10.31;81.24
53011;BME280;42803;55.762;38.084;2023-02-24T03:28:32;98946.88;;;-10.31;81.33
53011;BME280;42803;55.762;38.084;2023-02-24T03:31:08;98933.16;;;-10.33;80.85
53011;BME280;42803;55.762;38.084;2023-02-24T03:33:41;98927.19;;;-10.34;81.28
53011;BME280;42803;55.762;38.084;2023-02-24T03:36:16;98925.13;;;-10.36;80.98
53011;BME280;42803;55.762;38.084;2023-02-24T03:38:45;98930.88;;;-10.37;80.99
53011;BME280;42803;55.762;38.084;2023-02-24T03:41:17;98916.19;;;-10.40;81.15
53011;BME280;42803;55.762;38.084;2023-02-24T03:43:47;98910.25;;;-10.40;81.51
53011;BME280;42803;55.762;38.084;2023-02-24T03:46:18;98907.00;;;-10.39;81.57
53011;BME280;42803;55.762;38.084;2023-02-24T03:48:51;98907.00;;;-10.39;81.12
53011;BME280;42803;55.762;38.084;2023-02-24T03:51:25;98898.75;;;-10.38;80.87
53011;BME280;42803;55.762;38.084;2023-02-24T03:54:02;98897.38;;;-10.36;81.12
53011;BME280;42803;55.762;38.084;2023-02-24T03:56:44;98884.53;;;-10.32;81.25
53011;BME280;42803;55.762;38.084;2023-02-24T03:59:24;98880.38;;;-10.32;81.38
53011;BME280;42803;55.762;38.084;2023-02-24T04:02:02;98870.75;;;-10.28;81.60
53011;BME280;42803;55.762;38.084;2023-02-24T04:04:44;98866.41;;;-10.29;81.10
53011;BME280;42803;55.762;38.084;2023-02-24T04:07:31;98863.38;;;-10.27;80.84
53011;BME280;42803;55.762;38.084;2023-02-24T04:10:08;98852.63;;;-10.26;80.73
53011;BME280;42803;55.762;38.084;2023-02-24T04:12:46;98853.47;;;-10.20;80.93
53011;BME280;42803;55.762;38.084;2023-02-24T04:15:21;98855.53;;;-10.17;80.71
53011;BME280;42803;55.762;38.084;2023-02-24T04:17:54;98856.88;;;-10.14;80.99
53011;BME280;42803;55.762;38.084;2023-02-24T04:20:30;98853.66;;;-10.13;80.64
53011;BME280;42803;55.762;38.084;2023-02-24T04:23:07;98855.91;;;-10.09;81.07
53011;BME280;42803;55.762;38.084;2023-02-24T04:25:42;98857.31;;;-10.11;80.99
53011;BME280;42803;55.762;38.084;2023-02-24T04:28:14;98844.72;;;-10.11;80.81
53011;BME280;42803;55.762;38.084;2023-02-24T04:30:47;98848.81;;;-10.11;80.62
53011;BME280;42803;55.762;38.084;2023-02-24T04:33:18;98846.06;;;-10.07;80.62
53011;BME280;42803;55.762;38.084;2023-02-24T04:35:49;98831.13;;;-10.06;80.30
53011;BME280;42803;55.762;38.084;2023-02-24T04:38:22;98832.03;;;-9.99;80.01
53011;BME280;42803;55.762;38.084;2023-02-24T04:40:52;98832.69;;;-9.95;80.01
53011;BME280;42803;55.762;38.084;2023-02-24T04:43:22;98828.28;;;-9.90;79.84
53011;BME280;42803;55.762;38.084;2023-02-24T04:45:51;98820.44;;;-9.86;79.63
53011;BME280;42803;55.762;38.084;2023-02-24T04:48:20;98815.84;;;-9.83;79.95
53011;BME280;42803;55.762;38.084;2023-02-24T04:50:49;98824.50;;;-9.75;80.39
53011;BME280;42803;55.762;38.084;2023-02-24T04:53:23;98825.81;;;-9.66;80.36
53011;BME280;42803;55.762;38.084;2023-02-24T04:55:54;98827.16;;;-9.63;79.55
53011;BME280;42803;55.762;38.084;2023-02-24T04:58:24;98833.34;;;-9.61;79.11
53011;BME280;42803;55.762;38.084;2023-02-24T05:00:54;98816.59;;;-9.60;79.23
53011;BME280;42803;55.762;38.084;2023-02-24T05:03:24;98817.50;;;-9.60;79.11
53011;BME280;42803;55.762;38.084;2023-02-24T05:05:56;98806.50;;;-9.66;79.03
53011;BME280;42803;55.762;38.084;2023-02-24T05:08:29;98819.31;;;-9.59;79.80
53011;BME280;42803;55.762;38.084;2023-02-24T05:10:58;98803.47;;;-9.58;79.64
53011;BME280;42803;55.762;38.084;2023-02-24T05:13:31;98802.72;;;-9.51;79.74
53011;BME280;42803;55.762;38.084;2023-02-24T05:16:05;98798.53;;;-9.45;78.86
53011;BME280;42803;55.762;38.084;2023-02-24T05:18:35;98799.53;;;-9.32;78.54
53011;BME280;42803;55.762;38.084;2023-02-24T05:21:06;98782.94;;;-9.24;78.24
53011;BME280;42803;55.762;38.084;2023-02-24T05:23:55;98772.97;;;-9.17;78.79
53011;BME280;42803;55.762;38.084;2023-02-24T05:26:26;98776.16;;;-9.12;78.36
53011;BME280;42803;55.762;38.084;2023-02-24T05:28:59;98779.53;;;-9.06;77.86
53011;BME280;42803;55.762;38.084;2023-02-24T05:31:29;98772.31;;;-8.97;77.54
53011;BME280;42803;55.762;38.084;2023-02-24T05:34:00;98765.09;;;-8.89;77.59
53011;BME280;42803;55.762;38.084;2023-02-24T05:36:32;98761.59;;;-8.84;77.42
53011;BME280;42803;55.762;38.084;2023-02-24T05:39:03;98736.72;;;-8.80;77.64
53011;BME280;42803;55.762;38.084;2023-02-24T05:41:36;98727.25;;;-8.76;76.81
53011;BME280;42803;55.762;38.084;2023-02-24T05:44:07;98724.56;;;-8.65;76.48
53011;BME280;42803;55.762;38.084;2023-02-24T05:46:43;98723.53;;;-8.41;77.00
53011;BME280;42803;55.762;38.084;2023-02-24T05:49:14;98737.91;;;-8.35;76.17
53011;BME280;42803;55.762;38.084;2023-02-24T05:51:48;98724.81;;;-8.19;76.02
53011;BME280;42803;55.762;38.084;2023-02-24T05:54:24;98720.19;;;-8.03;76.06
53011;BME280;42803;55.762;38.084;2023-02-24T05:56:58;98708.00;;;-8.06;75.95
53011;BME280;42803;55.762;38.084;2023-02-24T05:59:31;98709.56;;;-8.01;75.56
53011;BME280;42803;55.762;38.084;2023-02-24T06:02:03;98696.63;;;-7.84;75.71
53011;BME280;42803;55.762;38.084;2023-02-24T06:04:35;98700.34;;;-7.88;74.93
53011;BME280;42803;55.762;38.084;2023-02-24T06:07:11;98693.38;;;-7.83;74.98
53011;BME280;42803;55.762;38.084;2023-02-24T06:09:48;98704.75;;;-7.74;75.41
53011;BME280;42803;55.762;38.084;2023-02-24T06:12:18;98700.47;;;-7.68;75.58
53011;BME280;42803;55.762;38.084;2023-02-24T06:14:48;98697.31;;;-7.60;74.63
53011;BME280;42803;55.762;38.084;2023-02-24T06:17:17;98690.03;;;-7.76;74.74
53011;BME280;42803;55.762;38.084;2023-02-24T06:19:49;98681.63;;;-7.70;75.87
53011;BME280;42803;55.762;38.084;2023-02-24T06:22:21;98681.63;;;-7.57;75.41
53011;BME280;42803;55.762;38.084;2023-02-24T06:24:52;98671.97;;;-7.60;74.34
53011;BME280;42803;55.762;38.084;2023-02-24T06:27:21;98674.53;;;-7.60;74.73
53011;BME280;42803;55.762;38.084;2023-02-24T06:29:53;98668.75;;;-7.58;74.57
53011;BME280;42803;55.762;38.084;2023-02-24T06:32:25;98670.56;;;-7.57;75.04
53011;BME280;42803;55.762;38.084;2023-02-24T06:34:54;98656.88;;;-7.52;75.23
53011;BME280;42803;55.762;38.084;2023-02-24T06:37:26;98648.88;;;-7.43;75.21
53011;BME280;42803;55.762;38.084;2023-02-24T06:39:58;98644.81;;;-7.35;74.81
53011;BME280;42803;55.762;38.084;2023-02-24T06:42:30;98646.31;;;-7.30;75.07
53011;BME280;42803;55.762;38.084;2023-02-24T06:44:59;98646.72;;;-7.27;75.25
53011;BME280;42803;55.762;38.084;2023-02-24T06:47:30;98641.03;;;-7.19;75.40
53011;BME280;42803;55.762;38.084;2023-02-24T06:49:59;98645.00;;;-7.21;75.29
53011;BME280;42803;55.762;38.084;2023-02-24T06:52:29;98646.31;;;-7.17;75.33
53011;BME280;42803;55.762;38.084;2023-02-24T06:54:59;98643.69;;;-7.24;75.74
53011;BME280;42803;55.762;38.084;2023-02-24T06:57:31;98639.03;;;-7.34;76.64
53011;BME280;42803;55.762;38.084;2023-02-24T07:00:01;98636.00;;;-7.44;77.63
53011;BME280;42803;55.762;38.084;2023-02-24T07:02:43;98634.19;;;-7.45;79.25
53011;BME280;42803;55.762;38.084;2023-02-24T07:05:12;98620.41;;;-7.47;80.18
53011;BME280;42803;55.762;38.084;2023-02-24T07:07:43;98614.41;;;-7.48;81.04
53011;BME280;42803;55.762;38.084;2023-02-24T07:10:15;98613.50;;;-7.48;81.86
53011;BME280;42803;55.762;38.084;2023-02-24T07:12:44;98616.84;;;-7.42;82.64
53011;BME280;42803;55.762;38.084;2023-02-24T07:15:13;98615.91;;;-7.30;83.29
53011;BME280;42803;55.762;38.084;2023-02-24T07:17:44;98614.16;;;-7.24;84.06
53011;BME280;42803;55.762;38.084;2023-02-24T07:20:15;98608.59;;;-7.34;84.27
53011;BME280;42803;55.762;38.084;2023-02-24T07:22:52;98602.34;;;-7.43;84.79
53011;BME280;42803;55.762;38.084;2023-02-24T07:25:22;98603.75;;;-7.32;85.48
53011;BME280;42803;55.762;38.084;2023-02-24T07:28:00;98594.84;;;-7.36;85.85
53011;BME280;42803;55.762;38.084;2023-02-24T07:30:30;98591.34;;;-7.24;86.16
53011;BME280;42803;55.762;38.084;2023-02-24T07:32:59;98584.19;;;-7.14;86.30
53011;BME280;42803;55.762;38.084;2023-02-24T07:35:30;98586.44;;;-7.09;86.34
53011;BME280;42803;55.762;38.084;2023-02-24T07:38:00;98574.28;;;-7.12;86.27
53011;BME280;42803;55.762;38.084;2023-02-24T07:40:33;98579.59;;;-7.03;86.65
53011;BME280;42803;55.762;38.084;2023-02-24T07:43:02;98571.09;;;-6.84;86.78
53011;BME280;42803;55.762;38.084;2023-02-24T07:45:33;98576.56;;;-6.81;86.48
53011;BME280;42803;55.762;38.084;2023-02-24T07:48:05;98571.31;;;-6.82;86.33
53011;BME280;42803;55.762;38.084;2023-02-24T07:50:34;98565.94;;;-6.91;86.25
53011;BME280;42803;55.762;38.084;2023-02-24T07:53:04;98565.13;;;-6.84;86.55
53011;BME280;42803;55.762;38.084;2023-02-24T07:55:35;98561.41;;;-6.74;86.73
53011;BME280;42803;55.762;38.084;2023-02-24T07:58:04;98558.16;;;-6.73;86.51
53011;BME280;42803;55.762;38.084;2023-02-24T08:00:34;98555.69;;;-6.66;86.58
53011;BME280;42803;55.762;38.084;2023-02-24T08:03:17;98557.38;;;-6.59;86.67
53011;BME280;42803;55.762;38.084;2023-02-24T08:05:46;98552.22;;;-6.46;86.36
53011;BME280;42803;55.762;38.084;2023-02-24T08:08:15;98549.78;;;-6.32;86.14
53011;BME280;42803;55.762;38.084;2023-02-24T08:10:49;98546.00;;;-6.28;85.88
53011;BME280;42803;55.762;38.084;2023-02-24T08:13:22;98541.50;;;-6.24;85.71
53011;BME280;42803;55.762;38.084;2023-02-24T08:15:51;98535.44;;;-6.04;85.46
53011;BME280;42803;55.762;38.084;2023-02-24T08:18:23;98534.97;;;-5.80;85.06
53011;BME280;42803;55.762;38.084;2023-02-24T08:20:56;98533.03;;;-5.76;84.65
53011;BME280;42803;55.762;38.084;2023-02-24T08:23:31;98526.44;;;-5.81;84.16
53011;BME280;42803;55.762;38.084;2023-02-24T08:26:12;98519.19;;;-5.78;84.20
53011;BME280;42803;55.762;38.084;2023-02-24T08:28:42;98520.47;;;-5.81;84.91
53011;BME280;42803;55.762;38.084;2023-02-24T08:31:11;98512.78;;;-5.89;85.16
53011;BME280;42803;55.762;38.084;2023-02-24T08:33:40;98511.59;;;-5.78;85.17
53011;BME280;42803;55.762;38.084;2023-02-24T08:36:10;98504.00;;;-5.71;85.01
53011;BME280;42803;55.762;38.084;2023-02-24T08:38:39;98511.63;;;-5.71;85.05
53011;BME280;42803;55.762;38.084;2023-02-24T08:41:15;98501.78;;;-5.75;85.16
53011;BME280;42803;55.762;38.084;2023-02-24T08:43:47;98503.41;;;-5.82;85.64
53011;BME280;42803;55.762;38.084;2023-02-24T08:46:18;98503.19;;;-5.98;86.00
53011;BME280;42803;55.762;38.084;2023-02-24T08:48:54;98496.69;;;-5.82;86.67
53011;BME280;42803;55.762;38.084;2023-02-24T08:51:26;98497.03;;;-5.86;86.45
53011;BME280;42803;55.762;38.084;2023-02-24T08:53:58;98491.03;;;-5.86;86.37
53011;BME280;42803;55.762;38.084;2023-02-24T08:56:31;98501.03;;;-5.81;86.90
53011;BME280;42803;55.762;38.084;2023-02-24T08:59:04;98487.97;;;-5.77;87.18
53011;BME280;42803;55.762;38.084;2023-02-24T09:01:34;98499.28;;;-5.68;87.30
53011;BME280;42803;55.762;38.084;2023-02-24T09:04:07;98501.28;;;-5.72;87.01
53011;BME280;42803;55.762;38.084;2023-02-24T09:06:41;98490.97;;;-5.59;87.09
53011;BME280;42803;55.762;38.084;2023-02-24T09:09:15;98489.50;;;-5.57;86.89
53011;BME280;42803;55.762;38.084;2023-02-24T09:11:49;98495.69;;;-5.55;86.72
53011;BME280;42803;55.762;38.084;2023-02-24T09:14:25;98496.09;;;-5.38;86.51
53011;BME280;42803;55.762;38.084;2023-02-24T09:16:57;98494.34;;;-5.18;86.21
53011;BME280;42803;55.762;38.084;2023-02-24T09:19:39;98481.25;;;-5.13;86.45
53011;BME280;42803;55.762;38.084;2023-02-24T09:22:31;98479.22;;;-5.30;86.60
53011;BME280;42803;55.762;38.084;2023-02-24T09:25:03;98478.13;;;-5.40;86.65
53011;BME280;42803;55.762;38.084;2023-02-24T09:27:54;98467.03;;;-5.40;87.44
53011;BME280;42803;55.762;38.084;2023-02-24T09:30:26;98470.69;;;-5.24;87.57
53011;BME280;42803;55.762;38.084;2023-02-24T09:33:06;98457.44;;;-5.14;87.32
53011;BME280;42803;55.762;38.084;2023-02-24T09:35:46;98456.31;;;-5.30;86.97
53011;BME280;42803;55.762;38.084;2023-02-24T09:38:16;98457.06;;;-5.24;87.04
53011;BME280;42803;55.762;38.084;2023-02-24T09:40:47;98450.75;;;-5.06;87.12
53011;BME280;42803;55.762;38.084;2023-02-24T09:43:20;98448.56;;;-5.10;86.74
53011;BME280;42803;55.762;38.084;2023-02-24T09:45:59;98439.44;;;-5.16;86.54
53011;BME280;42803;55.762;38.084;2023-02-24T09:48:46;98447.47;;;-5.05;87.44
53011;BME280;42803;55.762;38.084;2023-02-24T09:51:21;98444.91;;;-4.98;87.58
53011;BME280;42803;55.762;38.084;2023-02-24T09:53:53;98436.00;;;-5.09;86.90
53011;BME280;42803;55.762;38.084;2023-02-24T09:56:28;98428.38;;;-5.09;86.50
53011;BME280;42803;55.762;38.084;2023-02-24T09:59:11;98428.56;;;-5.07;87.16
53011;BME280;42803;55.762;38.084;2023-02-24T10:01:46;98427.63;;;-5.08;87.17
53011;BME280;42803;55.762;38.084;2023-02-24T10:04:40;98428.00;;;-5.05;87.46
53011;BME280;42803;55.762;38.084;2023-02-24T10:07:17;98417.84;;;-4.98;87.45
53011;BME280;42803;55.762;38.084;2023-02-24T10:09:53;98412.75;;;-4.98;87.32
53011;BME280;42803;55.762;38.084;2023-02-24T10:12:48;98410.72;;;-4.72;86.99
53011;BME280;42803;55.762;38.084;2023-02-24T10:15:25;98392.88;;;-4.57;86.88
53011;BME280;42803;55.762;38.084;2023-02-24T10:18:28;98402.34;;;-4.56;85.98
53011;BME280;42803;55.762;38.084;2023-02-24T10:21:09;98393.56;;;-4.51;86.07
53011;BME280;42803;55.762;38.084;2023-02-24T10:23:53;98390.13;;;-4.52;85.77
53011;BME280;42803;55.762;38.084;2023-02-24T10:26:30;98382.88;;;-4.56;85.67
53011;BME280;42803;55.762;38.084;2023-02-24T10:29:42;98382.25;;;-4.39;86.15
53011;BME280;42803;55.762;38.084;2023-02-24T10:32:21;98370.63;;;-4.37;86.66
53011;BME280;42803;55.762;38.084;2023-02-24T10:35:01;98371.75;;;-4.42;85.68
53011;BME280;42803;55.762;38.084;2023-02-24T10:37:32;98373.88;;;-4.31;85.70
53011;BME280;42803;55.762;38.084;2023-02-24T10:40:03;98367.16;;;-4.30;85.47
53011;BME280;42803;55.762;38.084;2023-02-24T10:42:39;98360.75;;;-4.20;85.48
53011;BME280;42803;55.762;38.084;2023-02-24T10:45:15;98353.97;;;-4.12;85.39
53011;BME280;42803;55.762;38.084;2023-02-24T10:47:51;98349.44;;;-4.14;85.34
53011;BME280;42803;55.762;38.084;2023-02-24T10:50:26;98352.38;;;-4.26;85.57
53011;BME280;42803;55.762;38.084;2023-02-24T10:53:05;98343.63;;;-4.21;85.73
53011;BME280;42803;55.762;38.084;2023-02-24T10:55:54;98352.13;;;-4.13;85.84
53011;BME280;42803;55.762;38.084;2023-02-24T10:58:42;98346.50;;;-4.10;85.10
53011;BME280;42803;55.762;38.084;2023-02-24T11:01:26;98345.72;;;-4.02;84.87
53011;BME280;42803;55.762;38.084;2023-02-24T11:04:13;98340.97;;;-3.99;84.78
53011;BME280;42803;55.762;38.084;2023-02-24T11:07:12;98334.50;;;-4.11;85.12
53011;BME280;42803;55.762;38.084;2023-02-24T11:10:03;98339.25;;;-4.14;85.12
53011;BME280;42803;55.762;38.084;2023-02-24T11:12:42;98329.03;;;-4.14;84.82
53011;BME280;42803;55.762;38.084;2023-02-24T11:15:40;98327.56;;;-4.12;84.55
53011;BME280;42803;55.762;38.084;2023-02-24T11:18:29;98328.72;;;-4.25;85.60
53011;BME280;42803;55.762;38.084;2023-02-24T11:21:02;98327.50;;;-4.35;85.98
53011;BME280;42803;55.762;38.084;2023-02-24T11:23:34;98319.84;;;-4.35;86.73
53011;BME280;42803;55.762;38.084;2023-02-24T11:26:12;98319.66;;;-4.30;86.82
53011;BME280;42803;55.762;38.084;2023-02-24T11:28:52;98319.81;;;-4.28;86.99
53011;BME280;42803;55.762;38.084;2023-02-24T11:31:35;98315.09;;;-4.32;86.45
53011;BME280;42803;55.762;38.084;2023-02-24T11:34:10;98308.72;;;-4.29;86.86
53011;BME280;42803;55.762;38.084;2023-02-24T11:36:51;98307.19;;;-4.43;87.15
53011;BME280;42803;55.762;38.084;2023-02-24T11:39:38;98317.84;;;-4.31;87.26
53011;BME280;42803;55.762;38.084;2023-02-24T11:42:15;98304.50;;;-4.21;87.38
53011;BME280;42803;55.762;38.084;2023-02-24T11:44:51;98302.66;;;-4.15;86.67
53011;BME280;42803;55.762;38.084;2023-02-24T11:47:30;98295.56;;;-4.18;86.68
53011;BME280;42803;55.762;38.084;2023-02-24T11:50:17;98295.31;;;-4.35;86.63
53011;BME280;42803;55.762;38.084;2023-02-24T11:52:51;98295.59;;;-4.25;86.97
53011;BME280;42803;55.762;38.084;2023-02-24T11:55:34;98295.56;;;-4.18;87.04
53011;BME280;42803;55.762;38.084;2023-02-24T11:58:11;98289.75;;;-4.24;87.30
53011;BME280;42803;55.762;38.084;2023-02-24T12:00:50;98286.16;;;-4.26;87.68
53011;BME280;42803;55.762;38.084;2023-02-24T12:03:26;98279.97;;;-4.28;87.41
53011;BME280;42803;55.762;38.084;2023-02-24T12:06:04;98274.19;;;-4.34;87.94
53011;BME280;42803;55.762;38.084;2023-02-24T12:08:41;98276.41;;;-4.44;87.85
53011;BME280;42803;55.762;38.084;2023-02-24T12:11:16;98273.72;;;-4.46;87.63
53011;BME280;42803;55.762;38.084;2023-02-24T12:13:55;98274.16;;;-4.27;88.38
53011;BME280;42803;55.762;38.084;2023-02-24T12:16:31;98273.06;;;-4.29;87.61
53011;BME280;42803;55.762;38.084;2023-02-24T12:19:03;98269.78;;;-4.28;87.69
53011;BME280;42803;55.762;38.084;2023-02-24T12:21:37;98270.38;;;-4.30;87.12
53011;BME280;42803;55.762;38.084;2023-02-24T12:24:09;98261.84;;;-4.38;87.21
53011;BME280;42803;55.762;38.084;2023-02-24T12:26:46;98266.16;;;-4.30;87.40
53011;BME280;42803;55.762;38.084;2023-02-24T12:29:40;98256.44;;;-4.18;87.31
53011;BME280;42803;55.762;38.084;2023-02-24T12:32:22;98249.13;;;-4.08;87.43
53011;BME280;42803;55.762;38.084;2023-02-24T12:35:03;98248.72;;;-4.04;86.76
53011;BME280;42803;55.762;38.084;2023-02-24T12:37:47;98248.78;;;-4.11;87.21
53011;BME280;42803;55.762;38.084;2023-02-24T12:40:30;98246.81;;;-4.21;87.61
53011;BME280;42803;55.762;38.084;2023-02-24T12:43:12;98241.38;;;-4.24;87.62
53011;BME280;42803;55.762;38.084;2023-02-24T12:45:52;98237.97;;;-4.31;87.52
53011;BME280;42803;55.762;38.084;2023-02-24T12:48:55;98233.44;;;-4.34;88.41
53011;BME280;42803;55.762;38.084;2023-02-24T12:51:44;98231.13;;;-4.47;88.81
53011;BME280;42803;55.762;38.084;2023-02-24T12:54:21;98237.16;;;-4.46;89.88
53011;BME280;42803;55.762;38.084;2023-02-24T12:56:58;98230.97;;;-4.48;89.80
53011;BME280;42803;55.762;38.084;2023-02-24T12:59:33;98227.88;;;-4.46;90.32
53011;BME280;42803;55.762;38.084;2023-02-24T13:02:11;98228.09;;;-4.58;90.04
53011;BME280;42803;55.762;38.084;2023-02-24T13:04:52;98224.66;;;-4.59;90.02
53011;BME280;42803;55.762;38.084;2023-02-24T13:07:35;98227.94;;;-4.60;90.60
53011;BME280;42803;55.762;38.084;2023-02-24T13:10:17;98225.25;;;-4.61;91.01
53011;BME280;42803;55.762;38.084;2023-02-24T13:12:57;98222.84;;;-4.60;92.09
53011;BME280;42803;55.762;38.084;2023-02-24T13:15:34;98218.19;;;-4.71;91.35
53011;BME280;42803;55.762;38.084;2023-02-24T13:18:03;98214.34;;;-4.68;91.07
53011;BME280;42803;55.762;38.084;2023-02-24T13:20:35;98216.16;;;-4.67;91.15
53011;BME280;42803;55.762;38.084;2023-02-24T13:23:18;98217.59;;;-4.61;92.32
53011;BME280;42803;55.762;38.084;2023-02-24T13:25:50;98211.97;;;-4.66;92.61
53011;BME280;42803;55.762;38.084;2023-02-24T13:28:24;98210.19;;;-4.74;92.34